sensor_id;sensor_type;location;lat;lon;timestamp;temperature;humidity
76102;SHT30;64830;46.910;6.354;2023-06-14T00:02:12;18.80;33.04
76102;SHT30;64830;46.910;6.354;2023-06-14T00:04:37;18.83;33.56
76102;SHT30;64830;46.910;6.354;2023-06-14T00:07:05;18.76;33.31
76102;SHT30;64830;46.910;6.354;2023-06-14T00:09:33;18.74;34.06
76102;SHT30;64830;46.910;6.354;2023-06-14T00:11:58;18.73;35.20
76102;SHT30;64830;46.910;6.354;2023-06-14T00:14:24;18.67;33.61
76102;SHT30;64830;46.910;6.354;2023-06-14T00:16:50;18.60;33.49
76102;SHT30;64830;46.910;6.354;2023-06-14T00:19:17;18.57;33.32
76102;SHT30;64830;46.910;6.354;2023-06-14T00:21:43;18.56;33.44
76102;SHT30;64830;46.910;6.354;2023-06-14T00:24:08;18.55;33.59
76102;SHT30;64830;46.910;6.354;2023-06-14T00:26:34;18.49;33.49
76102;SHT30;64830;46.910;6.354;2023-06-14T00:28:59;18.50;33.60
76102;SHT30;64830;46.910;6.354;2023-06-14T00:31:25;18.45;33.64
76102;SHT30;64830;46.910;6.354;2023-06-14T00:33:50;18.45;33.41
76102;SHT30;64830;46.910;6.354;2023-06-14T00:36:16;18.41;33.93
76102;SHT30;64830;46.910;6.354;2023-06-14T00:38:41;18.39;33.62
76102;SHT30;64830;46.910;6.354;2023-06-14T00:41:07;18.36;34.10
76102;SHT30;64830;46.910;6.354;2023-06-14T00:43:32;18.29;34.79
76102;SHT30;64830;46.910;6.354;2023-06-14T00:46:00;18.24;36.68
76102;SHT30;64830;46.910;6.354;2023-06-14T00:48:26;18.11;36.16
76102;SHT30;64830;46.910;6.354;2023-06-14T00:50:52;18.04;36.55
76102;SHT30;64830;46.910;6.354;2023-06-14T00:53:18;17.97;36.76
76102;SHT30;64830;46.910;6.354;2023-06-14T00:55:46;17.90;35.41
76102;SHT30;64830;46.910;6.354;2023-06-14T00:58:12;17.87;34.78
76102;SHT30;64830;46.910;6.354;2023-06-14T01:00:38;17.88;35.34
76102;SHT30;64830;46.910;6.354;2023-06-14T01:03:03;17.81;36.41
76102;SHT30;64830;46.910;6.354;2023-06-14T01:05:30;17.73;36.79
76102;SHT30;64830;46.910;6.354;2023-06-14T01:08:11;17.63;36.86
76102;SHT30;64830;46.910;6.354;2023-06-14T01:11:03;17.50;39.33
76102;SHT30;64830;46.910;6.354;2023-06-14T01:13:43;17.39;38.86
76102;SHT30;64830;46.910;6.354;2023-06-14T01:16:11;17.35;37.47
76102;SHT30;64830;46.910;6.354;2023-06-14T01:18:37;17.32;36.24
76102;SHT30;64830;46.910;6.354;2023-06-14T01:21:03;17.29;37.91
76102;SHT30;64830;46.910;6.354;2023-06-14T01:23:31;17.29;37.26
76102;SHT30;64830;46.910;6.354;2023-06-14T01:26:01;17.26;36.36
76102;SHT30;64830;46.910;6.354;2023-06-14T01:28:28;17.29;36.11
76102;SHT30;64830;46.910;6.354;2023-06-14T01:30:59;17.31;36.67
76102;SHT30;64830;46.910;6.354;2023-06-14T01:33:29;17.31;38.05
76102;SHT30;64830;46.910;6.354;2023-06-14T01:35:56;17.24;38.86
76102;SHT30;64830;46.910;6.354;2023-06-14T01:38:24;17.22;38.02
76102;SHT30;64830;46.910;6.354;2023-06-14T01:40:50;17.18;37.50
76102;SHT30;64830;46.910;6.354;2023-06-14T01:43:18;17.18;36.32
76102;SHT30;64830;46.910;6.354;2023-06-14T01:45:47;17.19;36.48
76102;SHT30;64830;46.910;6.354;2023-06-14T01:48:14;17.22;35.92
76102;SHT30;64830;46.910;6.354;2023-06-14T01:50:40;17.24;36.54
76102;SHT30;64830;46.910;6.354;2023-06-14T01:53:07;17.25;37.46
76102;SHT30;64830;46.910;6.354;2023-06-14T01:55:33;17.22;37.20
76102;SHT30;64830;46.910;6.354;2023-06-14T01:58:03;17.18;38.58
76102;SHT30;64830;46.910;6.354;2023-06-14T02:00:28;17.10;38.30
76102;SHT30;64830;46.910;6.354;2023-06-14T02:02:54;17.03;38.56
76102;SHT30;64830;46.910;6.354;2023-06-14T02:05:19;17.01;38.62
76102;SHT30;64830;46.910;6.354;2023-06-14T02:07:45;16.90;39.40
76102;SHT30;64830;46.910;6.354;2023-06-14T02:10:11;16.79;39.04
76102;SHT30;64830;46.910;6.354;2023-06-14T02:12:37;16.67;41.36
76102;SHT30;64830;46.910;6.354;2023-06-14T02:15:03;16.53;41.39
76102;SHT30;64830;46.910;6.354;2023-06-14T02:17:29;16.46;40.88
76102;SHT30;64830;46.910;6.354;2023-06-14T02:19:54;16.38;40.62
76102;SHT30;64830;46.910;6.354;2023-06-14T02:22:22;16.29;41.74
76102;SHT30;64830;46.910;6.354;2023-06-14T02:24:51;16.17;42.15
76102;SHT30;64830;46.910;6.354;2023-06-14T02:27:16;16.12;41.71
76102;SHT30;64830;46.910;6.354;2023-06-14T02:29:42;16.05;43.42
76102;SHT30;64830;46.910;6.354;2023-06-14T02:32:08;16.02;42.32
76102;SHT30;64830;46.910;6.354;2023-06-14T02:34:34;16.01;42.55
76102;SHT30;64830;46.910;6.354;2023-06-14T02:37:00;15.87;43.29
76102;SHT30;64830;46.910;6.354;2023-06-14T02:39:28;15.77;44.22
76102;SHT30;64830;46.910;6.354;2023-06-14T02:41:53;15.67;43.52
76102;SHT30;64830;46.910;6.354;2023-06-14T02:44:19;15.63;44.19
76102;SHT30;64830;46.910;6.354;2023-06-14T02:46:45;15.57;44.13
76102;SHT30;64830;46.910;6.354;2023-06-14T02:49:11;15.53;44.50
76102;SHT30;64830;46.910;6.354;2023-06-14T02:51:36;15.47;44.77
76102;SHT30;64830;46.910;6.354;2023-06-14T02:54:02;15.46;44.47
76102;SHT30;64830;46.910;6.354;2023-06-14T02:56:27;15.42;44.86
76102;SHT30;64830;46.910;6.354;2023-06-14T02:58:53;15.38;45.81
76102;SHT30;64830;46.910;6.354;2023-06-14T03:01:18;15.34;45.61
76102;SHT30;64830;46.910;6.354;2023-06-14T03:03:45;15.31;45.60
76102;SHT30;64830;46.910;6.354;2023-06-14T03:06:11;15.25;46.83
76102;SHT30;64830;46.910;6.354;2023-06-14T03:08:38;15.19;47.02
76102;SHT30;64830;46.910;6.354;2023-06-14T03:11:04;15.15;47.40
76102;SHT30;64830;46.910;6.354;2023-06-14T03:13:34;15.08;46.90
76102;SHT30;64830;46.910;6.354;2023-06-14T03:15:59;15.04;47.07
76102;SHT30;64830;46.910;6.354;2023-06-14T03:18:31;14.97;47.15
76102;SHT30;64830;46.910;6.354;2023-06-14T03:21:01;14.90;47.06
76102;SHT30;64830;46.910;6.354;2023-06-14T03:23:28;14.90;46.83
76102;SHT30;64830;46.910;6.354;2023-06-14T03:25:53;14.87;46.08
76102;SHT30;64830;46.910;6.354;2023-06-14T03:28:19;14.84;46.18
76102;SHT30;64830;46.910;6.354;2023-06-14T03:30:45;14.81;46.35
76102;SHT30;64830;46.910;6.354;2023-06-14T03:33:10;14.77;46.46
76102;SHT30;64830;46.910;6.354;2023-06-14T03:35:36;14.76;46.37
76102;SHT30;64830;46.910;6.354;2023-06-14T03:38:01;14.74;46.09
76102;SHT30;64830;46.910;6.354;2023-06-14T03:40:28;14.76;46.36
76102;SHT30;64830;46.910;6.354;2023-06-14T03:42:54;14.69;45.79
76102;SHT30;64830;46.910;6.354;2023-06-14T03:45:20;14.67;46.54
76102;SHT30;64830;46.910;6.354;2023-06-14T03:47:46;14.59;46.34
76102;SHT30;64830;46.910;6.354;2023-06-14T03:50:12;14.55;46.30
76102;SHT30;64830;46.910;6.354;2023-06-14T03:52:37;14.56;46.30
76102;SHT30;64830;46.910;6.354;2023-06-14T03:55:04;14.52;46.53
76102;SHT30;64830;46.910;6.354;2023-06-14T03:57:30;14.46;46.95
76102;SHT30;64830;46.910;6.354;2023-06-14T03:59:56;14.45;47.21
76102;SHT30;64830;46.910;6.354;2023-06-14T04:02:21;14.40;47.50
76102;SHT30;64830;46.910;6.354;2023-06-14T04:04:47;14.33;47.92
76102;SHT30;64830;46.910;6.354;2023-06-14T04:07:16;14.29;47.72
76102;SHT30;64830;46.910;6.354;2023-06-14T04:09:45;14.25;48.04
76102;SHT30;64830;46.910;6.354;2023-06-14T04:12:11;14.18;48.74
76102;SHT30;64830;46.910;6.354;2023-06-14T04:14:38;14.17;48.30
76102;SHT30;64830;46.910;6.354;2023-06-14T04:17:03;14.12;48.96
76102;SHT30;64830;46.910;6.354;2023-06-14T04:19:29;14.12;49.10
76102;SHT30;64830;46.910;6.354;2023-06-14T04:21:55;14.14;48.53
76102;SHT30;64830;46.910;6.354;2023-06-14T04:24:20;14.10;49.79
76102;SHT30;64830;46.910;6.354;2023-06-14T04:26:46;14.07;49.71
76102;SHT30;64830;46.910;6.354;2023-06-14T04:29:14;13.98;50.10
76102;SHT30;64830;46.910;6.354;2023-06-14T04:31:42;13.95;50.00
76102;SHT30;64830;46.910;6.354;2023-06-14T04:34:08;13.90;50.78
76102;SHT30;64830;46.910;6.354;2023-06-14T04:36:35;13.84;50.37
76102;SHT30;64830;46.910;6.354;2023-06-14T04:39:03;13.83;50.27
76102;SHT30;64830;46.910;6.354;2023-06-14T04:41:31;13.86;50.52
76102;SHT30;64830;46.910;6.354;2023-06-14T04:44:00;13.93;49.92
76102;SHT30;64830;46.910;6.354;2023-06-14T04:46:29;13.97;49.56
76102;SHT30;64830;46.910;6.354;2023-06-14T04:48:57;14.07;48.95
76102;SHT30;64830;46.910;6.354;2023-06-14T04:51:23;14.10;49.45
76102;SHT30;64830;46.910;6.354;2023-06-14T04:53:55;14.18;49.20
76102;SHT30;64830;46.910;6.354;2023-06-14T04:56:23;14.25;49.61
76102;SHT30;64830;46.910;6.354;2023-06-14T04:58:50;14.33;49.04
76102;SHT30;64830;46.910;6.354;2023-06-14T05:01:15;14.36;48.91
76102;SHT30;64830;46.910;6.354;2023-06-14T05:03:41;14.40;48.56
76102;SHT30;64830;46.910;6.354;2023-06-14T05:06:06;14.46;48.72
76102;SHT30;64830;46.910;6.354;2023-06-14T05:08:32;14.56;48.33
76102;SHT30;64830;46.910;6.354;2023-06-14T05:10:57;14.69;48.19
76102;SHT30;64830;46.910;6.354;2023-06-14T05:13:23;14.77;48.04
76102;SHT30;64830;46.910;6.354;2023-06-14T05:15:48;14.90;47.99
76102;SHT30;64830;46.910;6.354;2023-06-14T05:18:14;14.97;47.77
76102;SHT30;64830;46.910;6.354;2023-06-14T05:20:40;15.08;47.98
76102;SHT30;64830;46.910;6.354;2023-06-14T05:23:07;15.11;48.03
76102;SHT30;64830;46.910;6.354;2023-06-14T05:25:32;15.18;48.30
76102;SHT30;64830;46.910;6.354;2023-06-14T05:27:58;15.29;47.86
76102;SHT30;64830;46.910;6.354;2023-06-14T05:30:23;15.40;47.71
76102;SHT30;64830;46.910;6.354;2023-06-14T05:32:49;15.55;47.76
76102;SHT30;64830;46.910;6.354;2023-06-14T05:35:15;15.67;47.47
76102;SHT30;64830;46.910;6.354;2023-06-14T05:37:41;15.76;47.36
76102;SHT30;64830;46.910;6.354;2023-06-14T05:40:07;15.90;47.26
76102;SHT30;64830;46.910;6.354;2023-06-14T05:42:34;16.05;47.16
76102;SHT30;64830;46.910;6.354;2023-06-14T05:44:59;16.22;46.77
76102;SHT30;64830;46.910;6.354;2023-06-14T05:47:25;16.35;46.56
76102;SHT30;64830;46.910;6.354;2023-06-14T05:49:53;16.52;46.46
76102;SHT30;64830;46.910;6.354;2023-06-14T05:52:18;16.66;45.92
76102;SHT30;64830;46.910;6.354;2023-06-14T05:54:43;16.83;46.27
76102;SHT30;64830;46.910;6.354;2023-06-14T05:57:10;16.98;45.79
76102;SHT30;64830;46.910;6.354;2023-06-14T05:59:35;17.14;45.78
76102;SHT30;64830;46.910;6.354;2023-06-14T06:02:01;17.24;45.01
76102;SHT30;64830;46.910;6.354;2023-06-14T06:04:27;17.36;44.84
76102;SHT30;64830;46.910;6.354;2023-06-14T06:06:52;17.52;44.95
76102;SHT30;64830;46.910;6.354;2023-06-14T06:09:18;17.60;44.45
76102;SHT30;64830;46.910;6.354;2023-06-14T06:11:44;17.71;43.77
76102;SHT30;64830;46.910;6.354;2023-06-14T06:14:09;17.77;44.25
76102;SHT30;64830;46.910;6.354;2023-06-14T06:16:35;17.86;43.89
76102;SHT30;64830;46.910;6.354;2023-06-14T06:19:00;17.91;44.25
76102;SHT30;64830;46.910;6.354;2023-06-14T06:21:26;17.97;44.09
76102;SHT30;64830;46.910;6.354;2023-06-14T06:23:51;18.14;44.52
76102;SHT30;64830;46.910;6.354;2023-06-14T06:26:17;18.22;44.29
76102;SHT30;64830;46.910;6.354;2023-06-14T06:28:42;18.39;43.69
76102;SHT30;64830;46.910;6.354;2023-06-14T06:31:08;18.52;43.91
76102;SHT30;64830;46.910;6.354;2023-06-14T06:33:33;18.64;43.91
76102;SHT30;64830;46.910;6.354;2023-06-14T06:35:59;18.70;44.39
76102;SHT30;64830;46.910;6.354;2023-06-14T06:38:24;18.78;43.75
76102;SHT30;64830;46.910;6.354;2023-06-14T06:40:49;18.87;43.00
76102;SHT30;64830;46.910;6.354;2023-06-14T06:43:15;18.98;42.73
76102;SHT30;64830;46.910;6.354;2023-06-14T06:45:42;19.10;41.87
76102;SHT30;64830;46.910;6.354;2023-06-14T06:48:08;19.16;42.47
76102;SHT30;64830;46.910;6.354;2023-06-14T06:50:35;19.19;41.89
76102;SHT30;64830;46.910;6.354;2023-06-14T06:53:01;19.19;41.74
76102;SHT30;64830;46.910;6.354;2023-06-14T06:55:27;19.22;42.30
76102;SHT30;64830;46.910;6.354;2023-06-14T06:57:52;19.21;42.74
76102;SHT30;64830;46.910;6.354;2023-06-14T07:00:19;19.28;42.90
76102;SHT30;64830;46.910;6.354;2023-06-14T07:02:45;19.33;42.27
76102;SHT30;64830;46.910;6.354;2023-06-14T07:05:10;19.33;41.68
76102;SHT30;64830;46.910;6.354;2023-06-14T07:07:36;19.36;42.20
76102;SHT30;64830;46.910;6.354;2023-06-14T07:10:02;19.39;42.27
76102;SHT30;64830;46.910;6.354;2023-06-14T07:12:30;19.46;42.38
76102;SHT30;64830;46.910;6.354;2023-06-14T07:14:57;19.50;42.27
76102;SHT30;64830;46.910;6.354;2023-06-14T07:17:22;19.57;41.02
76102;SHT30;64830;46.910;6.354;2023-06-14T07:19:47;19.67;40.44
76102;SHT30;64830;46.910;6.354;2023-06-14T07:22:13;19.76;42.20
76102;SHT30;64830;46.910;6.354;2023-06-14T07:24:39;19.95;40.29
76102;SHT30;64830;46.910;6.354;2023-06-14T07:27:05;20.12;39.92
76102;SHT30;64830;46.910;6.354;2023-06-14T07:29:31;20.21;39.31
76102;SHT30;64830;46.910;6.354;2023-06-14T07:31:56;20.36;38.24
76102;SHT30;64830;46.910;6.354;2023-06-14T07:34:21;20.46;37.64
76102;SHT30;64830;46.910;6.354;2023-06-14T07:36:47;20.55;36.92
76102;SHT30;64830;46.910;6.354;2023-06-14T07:39:12;20.64;37.29
76102;SHT30;64830;46.910;6.354;2023-06-14T07:41:38;20.77;36.88
76102;SHT30;64830;46.910;6.354;2023-06-14T07:44:03;20.94;37.79
76102;SHT30;64830;46.910;6.354;2023-06-14T07:46:29;21.12;35.50
76102;SHT30;64830;46.910;6.354;2023-06-14T07:48:55;21.22;36.72
76102;SHT30;64830;46.910;6.354;2023-06-14T07:51:20;21.35;35.93
76102;SHT30;64830;46.910;6.354;2023-06-14T07:53:48;21.49;34.64
76102;SHT30;64830;46.910;6.354;2023-06-14T07:56:13;21.71;34.33
76102;SHT30;64830;46.910;6.354;2023-06-14T07:58:39;21.84;33.31
76102;SHT30;64830;46.910;6.354;2023-06-14T08:01:04;21.96;34.38
76102;SHT30;64830;46.910;6.354;2023-06-14T08:03:32;22.05;35.27
76102;SHT30;64830;46.910;6.354;2023-06-14T08:05:57;22.11;34.91
76102;SHT30;64830;46.910;6.354;2023-06-14T08:08:23;22.19;35.72
76102;SHT30;64830;46.910;6.354;2023-06-14T08:10:48;22.19;34.94
76102;SHT30;64830;46.910;6.354;2023-06-14T08:13:14;22.08;33.81
76102;SHT30;64830;46.910;6.354;2023-06-14T08:15:39;21.97;33.34
76102;SHT30;64830;46.910;6.354;2023-06-14T08:18:05;21.91;33.64
76102;SHT30;64830;46.910;6.354;2023-06-14T08:20:30;21.93;33.22
76102;SHT30;64830;46.910;6.354;2023-06-14T08:22:57;21.94;33.04
76102;SHT30;64830;46.910;6.354;2023-06-14T08:25:23;21.97;33.02
76102;SHT30;64830;46.910;6.354;2023-06-14T08:27:48;21.98;32.87
76102;SHT30;64830;46.910;6.354;2023-06-14T08:30:15;21.97;32.47
76102;SHT30;64830;46.910;6.354;2023-06-14T08:32:42;22.11;32.42
76102;SHT30;64830;46.910;6.354;2023-06-14T08:35:08;22.05;32.26
76102;SHT30;64830;46.910;6.354;2023-06-14T08:37:38;22.09;32.77
76102;SHT30;64830;46.910;6.354;2023-06-14T08:40:03;22.21;32.82
76102;SHT30;64830;46.910;6.354;2023-06-14T08:42:32;22.32;32.73
76102;SHT30;64830;46.910;6.354;2023-06-14T08:44:58;22.39;32.32
76102;SHT30;64830;46.910;6.354;2023-06-14T08:47:26;22.42;31.46
76102;SHT30;64830;46.910;6.354;2023-06-14T08:49:55;22.45;32.02
76102;SHT30;64830;46.910;6.354;2023-06-14T08:52:22;22.53;31.82
76102;SHT30;64830;46.910;6.354;2023-06-14T08:54:49;22.52;31.09
76102;SHT30;64830;46.910;6.354;2023-06-14T08:57:14;22.52;30.76
76102;SHT30;64830;46.910;6.354;2023-06-14T08:59:46;22.43;31.41
76102;SHT30;64830;46.910;6.354;2023-06-14T09:02:14;22.49;32.07
76102;SHT30;64830;46.910;6.354;2023-06-14T09:04:43;22.53;31.59
76102;SHT30;64830;46.910;6.354;2023-06-14T09:07:09;22.59;30.74
76102;SHT30;64830;46.910;6.354;2023-06-14T09:09:38;22.55;30.50
76102;SHT30;64830;46.910;6.354;2023-06-14T09:12:07;22.73;31.03
76102;SHT30;64830;46.910;6.354;2023-06-14T09:14:35;22.86;29.48
76102;SHT30;64830;46.910;6.354;2023-06-14T09:17:03;22.91;29.98
76102;SHT30;64830;46.910;6.354;2023-06-14T09:19:29;23.00;29.51
76102;SHT30;64830;46.910;6.354;2023-06-14T09:21:54;23.08;29.65
76102;SHT30;64830;46.910;6.354;2023-06-14T09:24:20;23.19;29.53
76102;SHT30;64830;46.910;6.354;2023-06-14T09:26:51;23.33;28.85
76102;SHT30;64830;46.910;6.354;2023-06-14T09:29:17;23.48;29.88
76102;SHT30;64830;46.910;6.354;2023-06-14T09:31:45;23.66;29.75
76102;SHT30;64830;46.910;6.354;2023-06-14T09:34:10;23.83;28.58
76102;SHT30;64830;46.910;6.354;2023-06-14T09:36:39;23.81;27.94
76102;SHT30;64830;46.910;6.354;2023-06-14T09:39:05;23.70;28.86
76102;SHT30;64830;46.910;6.354;2023-06-14T09:44:01;23.59;28.65
76102;SHT30;64830;46.910;6.354;2023-06-14T09:46:28;23.56;27.79
76102;SHT30;64830;46.910;6.354;2023-06-14T09:48:55;23.49;27.40
76102;SHT30;64830;46.910;6.354;2023-06-14T09:51:22;23.48;27.63
76102;SHT30;64830;46.910;6.354;2023-06-14T09:53:49;23.50;27.95
76102;SHT30;64830;46.910;6.354;2023-06-14T09:59:19;23.60;28.24
76102;SHT30;64830;46.910;6.354;2023-06-14T10:01:46;23.59;28.65
76102;SHT30;64830;46.910;6.354;2023-06-14T10:04:14;23.69;28.78
76102;SHT30;64830;46.910;6.354;2023-06-14T10:06:43;23.80;29.42
76102;SHT30;64830;46.910;6.354;2023-06-14T10:09:11;23.85;28.99
76102;SHT30;64830;46.910;6.354;2023-06-14T10:11:37;23.88;27.48
76102;SHT30;64830;46.910;6.354;2023-06-14T10:14:06;23.77;27.64
76102;SHT30;64830;46.910;6.354;2023-06-14T10:16:35;23.87;27.95
76102;SHT30;64830;46.910;6.354;2023-06-14T10:19:28;23.93;27.62
76102;SHT30;64830;46.910;6.354;2023-06-14T10:22:16;23.96;27.26
76102;SHT30;64830;46.910;6.354;2023-06-14T10:24:44;23.94;27.00
76102;SHT30;64830;46.910;6.354;2023-06-14T10:27:13;24.02;27.31
76102;SHT30;64830;46.910;6.354;2023-06-14T10:32:21;24.30;27.59
76102;SHT30;64830;46.910;6.354;2023-06-14T10:35:07;24.43;26.93
76102;SHT30;64830;46.910;6.354;2023-06-14T10:37:32;24.48;27.76
76102;SHT30;64830;46.910;6.354;2023-06-14T10:39:58;24.43;26.68
76102;SHT30;64830;46.910;6.354;2023-06-14T10:42:28;24.42;27.05
76102;SHT30;64830;46.910;6.354;2023-06-14T10:44:57;24.42;26.75
76102;SHT30;64830;46.910;6.354;2023-06-14T10:50:10;24.45;26.75
76102;SHT30;64830;46.910;6.354;2023-06-14T10:52:41;24.43;26.61
76102;SHT30;64830;46.910;6.354;2023-06-14T10:55:16;24.40;26.11
76102;SHT30;64830;46.910;6.354;2023-06-14T11:00:16;24.45;27.66
76102;SHT30;64830;46.910;6.354;2023-06-14T11:02:51;24.56;26.56
76102;SHT30;64830;46.910;6.354;2023-06-14T11:05:24;24.63;26.05
76102;SHT30;64830;46.910;6.354;2023-06-14T11:10:44;24.87;27.73
76102;SHT30;64830;46.910;6.354;2023-06-14T11:13:16;25.04;27.58
76102;SHT30;64830;46.910;6.354;2023-06-14T11:15:44;25.19;27.31
76102;SHT30;64830;46.910;6.354;2023-06-14T11:18:11;25.24;26.12
76102;SHT30;64830;46.910;6.354;2023-06-14T11:20:37;25.17;25.95
76102;SHT30;64830;46.910;6.354;2023-06-14T11:23:04;25.03;25.81
76102;SHT30;64830;46.910;6.354;2023-06-14T11:25:31;24.90;25.46
76102;SHT30;64830;46.910;6.354;2023-06-14T11:27:57;24.87;27.17
76102;SHT30;64830;46.910;6.354;2023-06-14T11:30:23;24.94;27.66
76102;SHT30;64830;46.910;6.354;2023-06-14T11:32:50;25.03;26.81
76102;SHT30;64830;46.910;6.354;2023-06-14T11:35:17;25.11;26.80
76102;SHT30;64830;46.910;6.354;2023-06-14T11:37:44;25.15;26.73
76102;SHT30;64830;46.910;6.354;2023-06-14T11:40:10;25.19;26.65
76102;SHT30;64830;46.910;6.354;2023-06-14T11:42:37;25.18;25.77
76102;SHT30;64830;46.910;6.354;2023-06-14T11:45:04;25.12;26.56
76102;SHT30;64830;46.910;6.354;2023-06-14T11:47:32;25.19;26.82
76102;SHT30;64830;46.910;6.354;2023-06-14T11:50:03;25.25;27.09
76102;SHT30;64830;46.910;6.354;2023-06-14T11:52:29;25.36;26.44
76102;SHT30;64830;46.910;6.354;2023-06-14T11:54:55;25.42;27.27
76102;SHT30;64830;46.910;6.354;2023-06-14T11:57:21;25.53;27.05
76102;SHT30;64830;46.910;6.354;2023-06-14T11:59:48;25.59;26.60
76102;SHT30;64830;46.910;6.354;2023-06-14T12:02:18;25.65;26.51
76102;SHT30;64830;46.910;6.354;2023-06-14T12:04:44;25.63;25.76
76102;SHT30;64830;46.910;6.354;2023-06-14T12:07:13;25.56;26.04
76102;SHT30;64830;46.910;6.354;2023-06-14T12:12:24;25.50;26.80
76102;SHT30;64830;46.910;6.354;2023-06-14T12:14:55;25.63;26.37
76102;SHT30;64830;46.910;6.354;2023-06-14T12:17:21;25.65;26.67
76102;SHT30;64830;46.910;6.354;2023-06-14T12:19:49;25.70;26.91
76102;SHT30;64830;46.910;6.354;2023-06-14T12:22:16;25.84;26.81
76102;SHT30;64830;46.910;6.354;2023-06-14T12:24:45;25.93;26.83
76102;SHT30;64830;46.910;6.354;2023-06-14T12:27:11;25.84;26.85
76102;SHT30;64830;46.910;6.354;2023-06-14T12:29:43;25.87;26.34
76102;SHT30;64830;46.910;6.354;2023-06-14T12:32:09;25.91;26.89
76102;SHT30;64830;46.910;6.354;2023-06-14T12:34:34;26.05;26.57
76102;SHT30;64830;46.910;6.354;2023-06-14T12:37:01;26.17;26.79
76102;SHT30;64830;46.910;6.354;2023-06-14T12:39:33;26.21;26.13
76102;SHT30;64830;46.910;6.354;2023-06-14T12:41:59;26.22;25.75
76102;SHT30;64830;46.910;6.354;2023-06-14T12:44:25;26.18;26.24
76102;SHT30;64830;46.910;6.354;2023-06-14T12:46:50;26.14;26.06
76102;SHT30;64830;46.910;6.354;2023-06-14T12:49:19;26.11;26.23
76102;SHT30;64830;46.910;6.354;2023-06-14T12:51:45;26.13;26.18
76102;SHT30;64830;46.910;6.354;2023-06-14T12:54:10;26.04;26.22
76102;SHT30;64830;46.910;6.354;2023-06-14T12:56:37;26.02;27.12
76102;SHT30;64830;46.910;6.354;2023-06-14T12:59:02;26.05;26.54
76102;SHT30;64830;46.910;6.354;2023-06-14T13:01:28;26.05;27.50
76102;SHT30;64830;46.910;6.354;2023-06-14T13:03:54;26.13;26.55
76102;SHT30;64830;46.910;6.354;2023-06-14T13:06:22;26.08;26.48
76102;SHT30;64830;46.910;6.354;2023-06-14T13:08:48;26.05;26.81
76102;SHT30;64830;46.910;6.354;2023-06-14T13:11:14;26.05;29.06
76102;SHT30;64830;46.910;6.354;2023-06-14T13:13:39;26.15;27.65
76102;SHT30;64830;46.910;6.354;2023-06-14T13:16:05;26.26;26.78
76102;SHT30;64830;46.910;6.354;2023-06-14T13:18:30;26.36;26.77
76102;SHT30;64830;46.910;6.354;2023-06-14T13:20:55;26.36;25.93
76102;SHT30;64830;46.910;6.354;2023-06-14T13:23:21;26.31;26.57
76102;SHT30;64830;46.910;6.354;2023-06-14T13:25:46;26.21;26.10
76102;SHT30;64830;46.910;6.354;2023-06-14T13:28:15;26.24;26.59
76102;SHT30;64830;46.910;6.354;2023-06-14T13:30:40;26.35;26.63
76102;SHT30;64830;46.910;6.354;2023-06-14T13:33:06;26.26;25.99
76102;SHT30;64830;46.910;6.354;2023-06-14T13:35:31;26.21;26.29
76102;SHT30;64830;46.910;6.354;2023-06-14T13:37:56;26.21;26.36
76102;SHT30;64830;46.910;6.354;2023-06-14T13:40:22;26.26;26.35
76102;SHT30;64830;46.910;6.354;2023-06-14T13:42:47;26.29;26.61
76102;SHT30;64830;46.910;6.354;2023-06-14T13:45:13;26.34;26.47
76102;SHT30;64830;46.910;6.354;2023-06-14T13:47:39;26.38;26.49
76102;SHT30;64830;46.910;6.354;2023-06-14T13:50:05;26.39;26.30
76102;SHT30;64830;46.910;6.354;2023-06-14T13:52:30;26.25;28.18
76102;SHT30;64830;46.910;6.354;2023-06-14T13:54:56;26.29;27.16
76102;SHT30;64830;46.910;6.354;2023-06-14T13:57:21;26.22;27.01
76102;SHT30;64830;46.910;6.354;2023-06-14T13:59:47;26.15;26.61
76102;SHT30;64830;46.910;6.354;2023-06-14T14:02:12;26.13;26.98
76102;SHT30;64830;46.910;6.354;2023-06-14T14:04:38;26.09;27.88
76102;SHT30;64830;46.910;6.354;2023-06-14T14:07:05;26.20;28.95
76102;SHT30;64830;46.910;6.354;2023-06-14T14:09:32;26.22;27.28
76102;SHT30;64830;46.910;6.354;2023-06-14T14:11:58;26.14;27.54
76102;SHT30;64830;46.910;6.354;2023-06-14T14:14:23;26.18;28.43
76102;SHT30;64830;46.910;6.354;2023-06-14T14:16:49;26.15;27.02
76102;SHT30;64830;46.910;6.354;2023-06-14T14:19:17;26.08;28.50
76102;SHT30;64830;46.910;6.354;2023-06-14T14:21:44;26.15;27.96
76102;SHT30;64830;46.910;6.354;2023-06-14T14:24:09;26.34;27.62
76102;SHT30;64830;46.910;6.354;2023-06-14T14:26:35;26.45;27.66
76102;SHT30;64830;46.910;6.354;2023-06-14T14:29:00;26.57;27.67
76102;SHT30;64830;46.910;6.354;2023-06-14T14:31:27;26.60;26.81
76102;SHT30;64830;46.910;6.354;2023-06-14T14:33:53;26.51;27.79
76102;SHT30;64830;46.910;6.354;2023-06-14T14:36:18;26.48;27.00
76102;SHT30;64830;46.910;6.354;2023-06-14T14:38:44;26.45;26.90
76102;SHT30;64830;46.910;6.354;2023-06-14T14:41:10;26.46;27.63
76102;SHT30;64830;46.910;6.354;2023-06-14T14:43:35;26.48;27.88
76102;SHT30;64830;46.910;6.354;2023-06-14T14:46:01;26.64;28.35
76102;SHT30;64830;46.910;6.354;2023-06-14T14:48:26;26.70;27.33
76102;SHT30;64830;46.910;6.354;2023-06-14T14:50:51;26.76;27.71
76102;SHT30;64830;46.910;6.354;2023-06-14T14:53:17;26.87;27.69
76102;SHT30;64830;46.910;6.354;2023-06-14T14:55:43;26.70;27.74
76102;SHT30;64830;46.910;6.354;2023-06-14T14:58:08;26.66;28.93
76102;SHT30;64830;46.910;6.354;2023-06-14T15:00:34;26.59;27.68
76102;SHT30;64830;46.910;6.354;2023-06-14T15:03:00;26.41;27.83
76102;SHT30;64830;46.910;6.354;2023-06-14T15:05:25;26.28;28.41
76102;SHT30;64830;46.910;6.354;2023-06-14T15:07:51;26.31;27.76
76102;SHT30;64830;46.910;6.354;2023-06-14T15:10:16;26.20;28.32
76102;SHT30;64830;46.910;6.354;2023-06-14T15:12:42;26.14;28.28
76102;SHT30;64830;46.910;6.354;2023-06-14T15:15:08;26.09;29.10
76102;SHT30;64830;46.910;6.354;2023-06-14T15:17:34;26.09;28.56
76102;SHT30;64830;46.910;6.354;2023-06-14T15:20:00;26.18;28.56
76102;SHT30;64830;46.910;6.354;2023-06-14T15:22:25;26.18;29.01
76102;SHT30;64830;46.910;6.354;2023-06-14T15:24:51;26.07;29.48
76102;SHT30;64830;46.910;6.354;2023-06-14T15:27:16;26.00;28.91
76102;SHT30;64830;46.910;6.354;2023-06-14T15:29:42;25.83;28.71
76102;SHT30;64830;46.910;6.354;2023-06-14T15:32:08;25.84;28.93
76102;SHT30;64830;46.910;6.354;2023-06-14T15:34:34;25.97;29.09
76102;SHT30;64830;46.910;6.354;2023-06-14T15:36:59;26.02;28.88
76102;SHT30;64830;46.910;6.354;2023-06-14T15:39:25;25.87;28.73
76102;SHT30;64830;46.910;6.354;2023-06-14T15:41:52;25.76;29.03
76102;SHT30;64830;46.910;6.354;2023-06-14T15:44:17;25.69;28.51
76102;SHT30;64830;46.910;6.354;2023-06-14T15:46:42;25.76;28.63